Time;durP1;ratioP1;P1;durP2;ratioP2;P2;SDS_P1;SDS_P2;PMS_P1;PMS_P2;Temp;Humidity;BMP_temperature;BMP_pressure;BME280_temperature;BME280_humidity;BME280_pressure;Samples;Min_cycle;Max_cycle;Signal;HPM_P1;HPM_P2
2022/05/22 00:02:01;;;;;;;3.50;2.43;;;20.80;89.70;;;;;;5000918;28;20506;-92
2022/05/22 00:04:27;;;;;;;2.30;2.10;;;20.80;89.50;;;;;;4982662;28;20413;-91
2022/05/22 00:06:52;;;;;;;2.23;2.03;;;20.70;89.30;;;;;;4981571;28;20242;-92
2022/05/22 00:09:18;;;;;;;2.90;2.37;;;20.70;89.20;;;;;;4998394;28;20218;-92
2022/05/22 00:11:45;;;;;;;2.73;2.03;;;20.70;89.00;;;;;;5000552;28;20578;-91
2022/05/22 00:14:11;;;;;;;2.20;1.73;;;20.70;88.90;;;;;;4982846;28;20779;-94
2022/05/22 00:16:41;;;;;;;2.10;1.73;;;20.70;88.70;;;;;;4982636;28;20568;-92
2022/05/22 00:19:13;;;;;;;3.47;2.00;;;20.70;88.50;;;;;;5000080;28;20423;-93
2022/05/22 00:21:40;;;;;;;2.67;2.43;;;20.70;88.40;;;;;;4999200;28;20445;-92
2022/05/22 00:24:07;;;;;;;2.70;2.00;;;20.70;88.20;;;;;;4982741;28;20418;-92
2022/05/22 00:26:33;;;;;;;3.47;2.20;;;20.70;88.20;;;;;;4988965;28;20435;-92
2022/05/22 00:28:59;;;;;;;2.90;2.10;;;20.70;88.20;;;;;;5011933;28;20475;-93
2022/05/22 00:31:25;;;;;;;2.40;1.83;;;20.60;88.20;;;;;;4999924;28;20459;-92
2022/05/22 00:33:51;;;;;;;2.40;1.80;;;20.60;88.10;;;;;;5017622;28;20441;-93
2022/05/22 00:36:17;;;;;;;1.90;1.80;;;20.60;88.10;;;;;;4999786;28;20429;-92
2022/05/22 00:38:43;;;;;;;2.43;1.93;;;20.60;88.20;;;;;;5000054;28;20232;-92
2022/05/22 00:41:10;;;;;;;2.83;2.13;;;20.60;88.30;;;;;;4999898;28;20467;-92
2022/05/22 00:43:39;;;;;;;1.90;1.80;;;20.60;88.60;;;;;;5000621;28;20668;-92
2022/05/22 00:46:08;;;;;;;2.93;2.57;;;20.50;88.70;;;;;;5018328;28;20424;-92
2022/05/22 00:48:35;;;;;;;2.80;2.03;;;20.40;88.90;;;;;;4999783;28;21055;-92
2022/05/22 00:51:13;;;;;;;2.23;2.03;;;20.40;89.10;;;;;;5000034;28;20514;-93
2022/05/22 00:53:44;;;;;;;2.33;1.90;;;20.40;89.30;;;;;;5017505;28;20462;-92
2022/05/22 00:56:15;;;;;;;1.83;1.73;;;20.30;89.60;;;;;;5017801;28;20435;-93
2022/05/22 00:58:41;;;;;;;2.67;2.13;;;20.30;89.80;;;;;;5017834;28;20400;-92
2022/05/22 01:01:07;;;;;;;5.40;2.43;;;20.30;90.00;;;;;;5001526;28;20422;-93
2022/05/22 01:03:33;;;;;;;2.10;1.90;;;20.20;90.00;;;;;;5001158;28;20455;-92
2022/05/22 01:06:05;;;;;;;3.07;2.77;;;20.20;90.10;;;;;;5000731;28;20430;-93
2022/05/22 01:08:33;;;;;;;3.03;2.73;;;20.10;90.60;;;;;;5001846;28;20478;-92
2022/05/22 01:11:07;;;;;;;2.67;2.20;;;20.10;90.30;;;;;;5001291;28;20479;-93
2022/05/22 01:13:36;;;;;;;2.00;1.77;;;20.00;90.40;;;;;;5007979;28;20428;-91
2022/05/22 01:16:04;;;;;;;2.10;1.90;;;19.90;90.50;;;;;;5003402;28;20465;-93
2022/05/22 01:18:39;;;;;;;1.87;1.77;;;19.90;90.60;;;;;;5023265;28;20422;-92
2022/05/22 01:21:14;;;;;;;3.00;2.00;;;19.90;90.70;;;;;;4999292;28;20429;-93
2022/05/22 01:23:40;;;;;;;2.60;2.40;;;19.80;90.80;;;;;;4999409;28;20920;-93
2022/05/22 01:26:06;;;;;;;2.47;1.97;;;19.80;90.80;;;;;;4996679;28;20456;-92
2022/05/22 01:28:32;;;;;;;3.63;2.60;;;19.70;90.90;;;;;;4980034;28;20465;-93
2022/05/22 01:30:58;;;;;;;2.50;2.10;;;19.70;90.90;;;;;;4980119;28;20186;-93
2022/05/22 01:33:23;;;;;;;2.30;2.10;;;19.60;91.00;;;;;;4980225;28;20220;-92
2022/05/22 01:35:49;;;;;;;3.47;3.17;;;19.60;91.00;;;;;;4998855;28;20185;-92
2022/05/22 01:38:17;;;;;;;2.90;1.80;;;19.60;91.00;;;;;;4981371;28;20209;-93
2022/05/22 01:40:43;;;;;;;2.23;2.03;;;19.60;91.00;;;;;;4981061;28;20276;-92
2022/05/22 01:43:09;;;;;;;3.00;2.10;;;19.60;91.00;;;;;;4997650;28;20470;-92
2022/05/22 01:45:34;;;;;;;2.37;2.00;;;19.60;91.00;;;;;;4980990;28;20435;-92
2022/05/22 01:48:00;;;;;;;2.47;2.00;;;19.60;91.00;;;;;;4982899;28;20502;-93
2022/05/22 01:50:26;;;;;;;2.40;2.20;;;19.60;91.00;;;;;;4981092;28;20201;-92
2022/05/22 01:52:52;;;;;;;3.77;2.47;;;19.50;91.00;;;;;;4997613;28;20204;-92
2022/05/22 01:55:18;;;;;;;3.07;2.00;;;19.50;91.00;;;;;;4982156;28;20197;-92
2022/05/22 01:57:44;;;;;;;2.53;2.27;;;19.50;91.00;;;;;;4980479;28;20433;-93
2022/05/22 02:00:14;;;;;;;7.03;2.50;;;19.50;91.00;;;;;;4981155;28;20192;-92
2022/05/22 02:02:39;;;;;;;2.97;2.30;;;19.40;90.90;;;;;;4980750;28;20451;-92
2022/05/22 02:05:06;;;;;;;3.13;2.57;;;19.40;90.90;;;;;;4982047;28;20443;-94
2022/05/22 02:10:15;;;;;;;2.57;2.37;;;19.30;91.00;;;;;;4997551;28;20428;-92
2022/05/22 02:12:41;;;;;;;2.20;2.00;;;19.30;91.00;;;;;;4997844;28;20427;-92
2022/05/22 02:15:08;;;;;;;2.50;2.30;;;19.20;90.90;;;;;;4984692;28;20650;-91
2022/05/22 02:17:33;;;;;;;2.37;2.17;;;19.20;91.00;;;;;;4979444;28;20200;-92
2022/05/22 02:19:59;;;;;;;2.47;2.23;;;19.20;91.00;;;;;;4979055;28;20430;-92
2022/05/22 02:22:25;;;;;;;2.33;2.13;;;19.10;91.00;;;;;;4981779;28;20222;-91
2022/05/22 02:24:53;;;;;;;3.63;3.33;;;19.10;91.00;;;;;;4979467;28;20411;-92
2022/05/22 02:27:19;;;;;;;6.50;5.70;;;19.00;91.00;;;;;;5009173;28;20645;-92
2022/05/22 02:29:45;;;;;;;9.97;5.90;;;19.00;91.10;;;;;;4998285;28;20417;-92
2022/05/22 02:32:11;;;;;;;4.70;3.13;;;18.90;91.10;;;;;;4998265;28;20556;-92
2022/05/22 02:34:38;;;;;;;3.60;2.77;;;18.90;91.20;;;;;;5015359;28;20487;-92
2022/05/22 02:37:04;;;;;;;8.50;2.70;;;18.80;91.20;;;;;;5015741;28;20516;-92
2022/05/22 02:39:30;;;;;;;2.23;2.03;;;18.80;91.30;;;;;;4999303;28;20453;-89
2022/05/22 02:42:06;;;;;;;3.63;2.33;;;18.80;91.30;;;;;;5016769;28;20436;-91
2022/05/22 02:44:32;;;;;;;6.60;2.00;;;18.70;91.40;;;;;;5016222;28;20916;-92
2022/05/22 02:46:58;;;;;;;3.80;2.20;;;18.70;91.40;;;;;;5016828;28;20464;-92
2022/05/22 02:49:23;;;;;;;2.30;2.00;;;18.70;91.40;;;;;;5000212;28;20508;-91
2022/05/22 02:51:49;;;;;;;2.30;2.10;;;18.60;91.50;;;;;;4999288;28;20611;-92
2022/05/22 02:54:15;;;;;;;2.30;2.00;;;18.60;91.50;;;;;;5000384;28;20175;-91
2022/05/22 02:56:41;;;;;;;2.90;2.40;;;18.60;91.60;;;;;;4999723;28;20208;-92
2022/05/22 02:59:07;;;;;;;3.00;2.70;;;18.60;91.60;;;;;;5002207;28;20180;-92
2022/05/22 03:01:33;;;;;;;2.00;1.90;;;18.50;91.70;;;;;;5002271;28;20441;-92
2022/05/22 03:03:59;;;;;;;2.87;2.67;;;18.40;91.70;;;;;;5012551;28;20413;-91
2022/05/22 03:06:40;;;;;;;3.57;2.50;;;18.40;91.80;;;;;;5012905;28;20945;-91
2022/05/22 03:09:08;;;;;;;3.40;2.20;;;18.40;91.90;;;;;;5003879;28;20218;-92
2022/05/22 03:11:37;;;;;;;2.60;2.10;;;18.30;91.90;;;;;;5006587;28;20975;-92
2022/05/22 03:14:03;;;;;;;4.63;2.33;;;18.30;92.00;;;;;;5007166;28;20769;-92
2022/05/22 03:16:29;;;;;;;2.23;2.00;;;18.20;92.10;;;;;;4999521;28;20545;-92
2022/05/22 03:18:54;;;;;;;2.53;2.00;;;18.20;92.10;;;;;;5005889;28;20216;-91
2022/05/22 03:21:20;;;;;;;2.30;1.97;;;18.20;92.20;;;;;;4996341;28;20223;-92
2022/05/22 03:23:46;;;;;;;3.93;2.30;;;18.10;92.20;;;;;;4997381;28;20183;-92
2022/05/22 03:26:12;;;;;;;2.20;2.00;;;18.10;92.30;;;;;;4993713;28;20960;-92
2022/05/22 03:28:38;;;;;;;2.30;2.10;;;18.10;92.40;;;;;;4977593;28;20220;-92
2022/05/22 03:31:04;;;;;;;4.97;2.77;;;18.10;92.50;;;;;;4980513;28;20188;-92
2022/05/22 03:33:30;;;;;;;2.43;2.23;;;18.10;92.50;;;;;;4974669;28;20496;-92
2022/05/22 03:35:56;;;;;;;3.10;2.63;;;18.10;92.50;;;;;;4975905;28;20891;-92
2022/05/22 03:38:21;;;;;;;3.87;2.93;;;18.10;92.60;;;;;;4975337;28;20430;-92
2022/05/22 03:40:48;;;;;;;3.90;2.90;;;18.10;92.60;;;;;;4976431;28;20185;-91
2022/05/22 03:43:17;;;;;;;2.43;2.10;;;18.10;92.60;;;;;;4974689;28;20219;-92
2022/05/22 03:45:45;;;;;;;2.90;2.60;;;18.10;92.70;;;;;;4975710;28;20429;-92
2022/05/22 03:48:11;;;;;;;3.27;2.50;;;18.10;92.70;;;;;;4974516;28;20474;-93
2022/05/22 03:50:37;;;;;;;2.90;2.03;;;18.10;92.80;;;;;;4975157;28;20430;-92
2022/05/22 03:53:03;;;;;;;2.33;2.00;;;18.10;92.90;;;;;;4975665;28;20430;-92
2022/05/22 03:55:30;;;;;;;2.80;2.40;;;18.10;93.00;;;;;;4980068;28;20786;-92
2022/05/22 03:57:56;;;;;;;2.30;1.97;;;18.10;93.10;;;;;;4980166;28;20437;-92
2022/05/22 04:00:23;;;;;;;2.33;2.13;;;18.10;93.10;;;;;;4978729;28;20430;-92
2022/05/22 04:02:49;;;;;;;3.50;1.90;;;18.10;93.10;;;;;;4979718;28;20966;-92
2022/05/22 04:05:15;;;;;;;2.97;2.67;;;18.10;93.30;;;;;;4978329;28;20435;-92
2022/05/22 04:07:43;;;;;;;2.70;2.40;;;18.20;93.20;;;;;;4979367;28;20294;-92
2022/05/22 04:10:11;;;;;;;2.97;2.10;;;18.20;93.20;;;;;;4980513;28;20414;-92
2022/05/22 04:12:38;;;;;;;2.10;1.80;;;18.20;93.20;;;;;;4979295;28;20945;-92
2022/05/22 04:15:08;;;;;;;2.50;2.30;;;18.20;93.30;;;;;;4977933;28;20858;-92
2022/05/22 04:17:34;;;;;;;3.10;2.73;;;18.20;93.50;;;;;;4978178;28;20781;-92
2022/05/22 04:20:01;;;;;;;3.53;2.20;;;18.20;93.60;;;;;;4978078;28;20423;-91
2022/05/22 04:22:27;;;;;;;2.40;2.20;;;18.20;93.60;;;;;;4980074;28;20530;-92
2022/05/22 04:27:38;;;;;;;2.37;2.17;;;18.20;93.90;;;;;;4978884;28;20521;-91
2022/05/22 04:30:05;;;;;;;3.30;2.47;;;18.30;94.00;;;;;;4979131;28;20430;-92
2022/05/22 04:32:31;;;;;;;3.70;2.00;;;18.30;94.30;;;;;;4978586;28;20435;-92
2022/05/22 04:34:57;;;;;;;2.00;1.80;;;18.30;94.10;;;;;;4978755;28;20438;-90
2022/05/22 04:37:23;;;;;;;3.30;1.90;;;18.40;94.00;;;;;;4978476;28;20201;-92
2022/05/22 04:39:48;;;;;;;2.37;2.13;;;18.40;93.90;;;;;;4979150;28;20180;-92
2022/05/22 04:42:15;;;;;;;2.30;2.10;;;18.50;93.90;;;;;;4978790;28;20212;-92
2022/05/22 04:44:41;;;;;;;3.17;2.13;;;18.50;93.80;;;;;;4979274;28;20169;-92
2022/05/22 04:47:06;;;;;;;2.20;2.00;;;18.60;94.00;;;;;;4980236;28;20463;-92
2022/05/22 04:49:32;;;;;;;2.43;2.23;;;18.60;94.20;;;;;;4978510;28;20216;-92
2022/05/22 04:51:59;;;;;;;3.90;2.43;;;18.70;94.20;;;;;;4982091;28;20196;-91
2022/05/22 04:54:25;;;;;;;3.10;2.50;;;18.70;94.10;;;;;;4980598;28;20435;-92
2022/05/22 04:56:53;;;;;;;2.63;2.27;;;18.70;94.10;;;;;;4978185;28;20442;-92
2022/05/22 04:59:20;;;;;;;3.70;2.87;;;18.80;94.00;;;;;;4979238;28;20963;-93
2022/05/22 05:01:46;;;;;;;3.73;2.70;;;18.80;94.00;;;;;;4977817;28;20490;-91
2022/05/22 05:04:13;;;;;;;2.30;2.03;;;18.80;94.10;;;;;;4978155;28;20505;-92
2022/05/22 05:06:39;;;;;;;4.80;2.73;;;18.90;94.20;;;;;;4978754;28;20462;-92
2022/05/22 05:09:05;;;;;;;2.30;2.03;;;18.90;94.10;;;;;;4980844;28;20470;-92
2022/05/22 05:11:30;;;;;;;4.33;2.10;;;18.90;94.10;;;;;;4980410;28;20213;-92
2022/05/22 05:13:56;;;;;;;2.40;2.17;;;19.00;94.00;;;;;;4976926;28;20507;-92
2022/05/22 05:16:22;;;;;;;1.93;1.83;;;19.00;93.80;;;;;;4987633;28;20231;-91
2022/05/22 05:18:48;;;;;;;2.93;2.30;;;19.00;93.40;;;;;;4980219;28;20181;-91
2022/05/22 05:21:17;;;;;;;1.90;1.80;;;19.00;93.40;;;;;;4997772;28;20546;-91
2022/05/22 05:23:43;;;;;;;2.00;1.73;;;19.00;93.10;;;;;;4998520;28;20416;-90
2022/05/22 05:26:08;;;;;;;2.27;2.00;;;19.00;93.00;;;;;;4981281;28;20465;-92
2022/05/22 05:28:35;;;;;;;5.30;2.07;;;19.10;93.00;;;;;;4980139;28;20487;-90
2022/05/22 05:31:03;;;;;;;1.93;1.60;;;19.10;92.90;;;;;;4980064;28;20433;-92
2022/05/22 05:33:32;;;;;;;5.30;2.23;;;19.10;92.80;;;;;;4997275;28;20418;-93
2022/05/22 05:35:58;;;;;;;2.97;2.20;;;19.10;92.40;;;;;;4980910;28;20431;-92
2022/05/22 05:38:23;;;;;;;1.83;1.73;;;19.20;92.20;;;;;;4980069;28;20475;-94
2022/05/22 05:40:49;;;;;;;2.90;2.13;;;19.30;91.80;;;;;;4999166;28;20416;-92
2022/05/22 05:43:16;;;;;;;1.90;1.50;;;19.30;91.70;;;;;;4979837;28;20733;-92
2022/05/22 05:45:43;;;;;;;2.37;1.67;;;19.40;91.70;;;;;;4997072;28;20426;-91
2022/05/22 05:48:09;;;;;;;2.00;1.83;;;19.40;91.90;;;;;;4979361;28;20621;-91
2022/05/22 05:50:35;;;;;;;2.07;1.77;;;19.50;91.70;;;;;;4997323;28;20421;-92
2022/05/22 05:53:01;;;;;;;2.87;2.00;;;19.60;91.70;;;;;;4996648;28;20431;-92
2022/05/22 05:55:28;;;;;;;1.80;1.70;;;19.60;91.60;;;;;;4996936;28;20180;-92
2022/05/22 05:57:54;;;;;;;1.77;1.67;;;19.70;91.40;;;;;;4996305;28;20439;-92
2022/05/22 06:00:23;;;;;;;1.77;1.63;;;19.70;91.30;;;;;;4978942;28;20443;-91
2022/05/22 06:02:49;;;;;;;1.57;1.47;;;19.80;91.30;;;;;;4979171;28;20444;-92
2022/05/22 06:05:15;;;;;;;2.73;1.70;;;19.80;91.40;;;;;;4979136;28;20420;-93
2022/05/22 06:07:41;;;;;;;4.07;2.00;;;19.90;91.30;;;;;;4996216;28;20439;-92
2022/05/22 06:10:09;;;;;;;2.20;1.73;;;19.90;91.10;;;;;;4997211;28;20420;-91
2022/05/22 06:12:35;;;;;;;1.83;1.73;;;20.00;91.10;;;;;;4979204;28;20448;-93
2022/05/22 06:15:01;;;;;;;1.47;1.37;;;20.00;90.70;;;;;;4979744;28;20416;-91
2022/05/22 06:17:32;;;;;;;2.60;1.57;;;20.00;90.60;;;;;;4996936;28;20546;-92
2022/05/22 06:20:00;;;;;;;1.60;1.50;;;20.00;90.80;;;;;;4980702;28;20535;-92
2022/05/22 06:22:28;;;;;;;3.23;1.40;;;20.10;90.90;;;;;;4979782;28;20447;-92
2022/05/22 06:24:55;;;;;;;2.60;1.83;;;20.20;90.90;;;;;;4979493;28;20420;-91
2022/05/22 06:27:21;;;;;;;2.00;1.80;;;20.20;91.00;;;;;;5010346;28;20470;-93
2022/05/22 06:29:46;;;;;;;1.50;1.40;;;20.30;91.00;;;;;;5016968;28;20468;-92
2022/05/22 06:32:15;;;;;;;4.03;2.00;;;20.30;90.70;;;;;;5000516;28;21002;-91
2022/05/22 06:34:41;;;;;;;1.47;1.37;;;20.40;90.40;;;;;;5017982;28;20669;-92
2022/05/22 06:37:09;;;;;;;2.10;1.40;;;20.50;90.40;;;;;;5000547;28;20527;-92
2022/05/22 06:39:52;;;;;;;1.57;1.47;;;20.60;90.00;;;;;;5017650;28;20947;-93
2022/05/22 06:42:22;;;;;;;2.00;1.57;;;20.60;90.00;;;;;;5014260;28;20444;-91
2022/05/22 06:44:58;;;;;;;1.70;1.60;;;20.70;89.60;;;;;;5005164;28;20436;-92
2022/05/22 06:47:26;;;;;;;2.20;1.37;;;20.80;89.80;;;;;;4999526;28;20453;-92
2022/05/22 06:49:53;;;;;;;2.10;1.60;;;20.90;89.10;;;;;;5015076;28;20447;-92
2022/05/22 06:52:18;;;;;;;2.93;1.70;;;20.90;88.80;;;;;;4998254;28;20445;-91
2022/05/22 06:54:45;;;;;;;1.93;1.77;;;21.00;89.00;;;;;;5014854;28;20504;-93
2022/05/22 06:57:14;;;;;;;1.57;1.40;;;21.10;89.00;;;;;;4998142;28;20229;-91
2022/05/22 06:59:39;;;;;;;1.40;1.30;;;21.10;89.00;;;;;;4998088;28;20523;-92
2022/05/22 07:02:06;;;;;;;1.30;1.20;;;21.20;88.70;;;;;;4997908;28;20480;-93
2022/05/22 07:04:31;;;;;;;1.67;1.47;;;21.30;88.10;;;;;;4998058;28;20186;-92
2022/05/22 07:06:57;;;;;;;2.70;1.60;;;21.30;87.80;;;;;;4997881;28;20455;-92
2022/05/22 07:09:23;;;;;;;1.83;1.50;;;21.40;87.30;;;;;;5015079;28;20475;-92
2022/05/22 07:11:53;;;;;;;3.07;1.30;;;21.50;86.30;;;;;;5016162;28;20203;-92
2022/05/22 07:14:20;;;;;;;1.60;1.17;;;21.50;85.50;;;;;;4998917;28;20261;-92
2022/05/22 07:16:46;;;;;;;1.73;1.63;;;21.60;85.60;;;;;;4995200;28;20560;-93
2022/05/22 07:19:13;;;;;;;2.40;1.20;;;21.70;85.60;;;;;;4995626;28;20589;-92
2022/05/22 07:21:39;;;;;;;2.57;1.83;;;21.70;85.00;;;;;;4995410;28;20445;-92
2022/05/22 07:24:05;;;;;;;1.30;1.20;;;21.80;85.30;;;;;;4995959;28;20823;-92
2022/05/22 07:26:31;;;;;;;1.50;1.20;;;21.90;84.80;;;;;;4990088;28;20477;-92
2022/05/22 07:29:01;;;;;;;1.40;1.30;;;22.00;84.70;;;;;;4978058;28;20477;-93
2022/05/22 07:31:28;;;;;;;1.33;1.00;;;22.00;84.50;;;;;;4980431;28;20541;-92
2022/05/22 07:33:57;;;;;;;3.07;1.20;;;22.10;84.10;;;;;;4981128;28;20477;-92
2022/05/22 07:36:23;;;;;;;1.47;1.37;;;22.20;83.40;;;;;;4979077;28;20453;-91
2022/05/22 07:38:49;;;;;;;1.90;1.33;;;22.30;82.70;;;;;;4980653;28;20422;-92
2022/05/22 07:41:16;;;;;;;1.10;0.80;;;22.40;82.00;;;;;;4979768;28;20425;-92
2022/05/22 07:43:42;;;;;;;3.30;2.03;;;22.50;80.90;;;;;;4980169;28;20191;-91
2022/05/22 07:46:09;;;;;;;1.13;1.07;;;22.50;79.00;;;;;;4981139;28;20476;-92
2022/05/22 07:48:35;;;;;;;0.60;0.60;;;22.60;77.70;;;;;;4979690;28;20490;-94
2022/05/22 07:51:03;;;;;;;0.87;0.83;;;22.70;75.80;;;;;;4981382;28;20414;-94
2022/05/22 07:53:30;;;;;;;1.17;0.90;;;22.80;75.70;;;;;;4981262;28;20777;-94
2022/05/22 07:55:56;;;;;;;2.97;1.17;;;22.90;74.00;;;;;;4979912;28;20449;-94
2022/05/22 07:58:23;;;;;;;1.20;1.10;;;23.00;73.50;;;;;;4979859;28;20442;-93
2022/05/22 08:00:50;;;;;;;3.03;0.97;;;23.10;74.20;;;;;;4980187;28;20447;-91
2022/05/22 08:03:17;;;;;;;1.07;0.90;;;23.10;76.00;;;;;;4981503;28;20502;-91
2022/05/22 08:05:43;;;;;;;1.53;1.07;;;23.20;74.80;;;;;;4980183;28;20419;-91
2022/05/22 08:08:10;;;;;;;4.83;1.13;;;23.30;74.20;;;;;;4979442;28;20898;-91
2022/05/22 08:10:37;;;;;;;3.10;1.10;;;23.40;73.70;;;;;;4981430;28;20414;-91
2022/05/22 08:13:05;;;;;;;2.20;1.50;;;23.50;73.10;;;;;;4980941;28;20937;-91
2022/05/22 08:15:33;;;;;;;1.00;1.00;;;23.50;73.10;;;;;;4988871;28;20458;-90
2022/05/22 08:17:59;;;;;;;4.53;1.07;;;23.60;73.20;;;;;;4984955;28;20871;-92
2022/05/22 08:20:27;;;;;;;3.70;1.10;;;23.60;73.10;;;;;;4985217;28;20419;-93
2022/05/22 08:22:56;;;;;;;0.80;0.80;;;23.60;73.50;;;;;;4983193;28;20435;-91
2022/05/22 08:25:24;;;;;;;0.90;0.90;;;23.70;73.60;;;;;;4997984;28;20465;-92
2022/05/22 08:27:52;;;;;;;2.17;1.27;;;23.70;72.70;;;;;;4980633;28;21006;-92
2022/05/22 08:30:19;;;;;;;1.03;0.87;;;23.80;72.80;;;;;;4981544;28;20419;-92
2022/05/22 08:32:47;;;;;;;1.13;1.03;;;23.90;72.90;;;;;;4998258;28;20427;-93
2022/05/22 08:35:16;;;;;;;1.23;0.93;;;23.90;73.00;;;;;;4998222;28;20967;-92
2022/05/22 08:37:42;;;;;;;0.80;0.80;;;24.00;72.40;;;;;;4980485;28;20444;-93
2022/05/22 08:40:10;;;;;;;1.33;1.07;;;24.10;71.90;;;;;;4997744;28;20434;-92
2022/05/22 08:42:41;;;;;;;2.83;1.20;;;24.10;71.40;;;;;;4979820;28;20448;-92
2022/05/22 08:45:17;;;;;;;1.30;1.20;;;24.20;71.60;;;;;;4999411;28;20424;-92
2022/05/22 08:47:59;;;;;;;3.10;0.90;;;24.30;71.40;;;;;;4980310;28;20445;-92
2022/05/22 08:50:28;;;;;;;1.00;1.00;;;24.40;71.50;;;;;;4997617;28;20510;-92
2022/05/22 08:53:03;;;;;;;3.47;1.07;;;24.40;71.80;;;;;;4980149;28;20515;-91
2022/05/22 09:01:14;;;;;;;7.10;1.50;;;24.70;70.80;;;;;;4998920;28;20423;-92
2022/05/22 09:03:51;;;;;;;1.20;1.10;;;24.80;71.80;;;;;;4980087;28;20467;-93
2022/05/22 09:06:26;;;;;;;2.07;1.20;;;24.80;72.50;;;;;;4981028;28;20424;-92
2022/05/22 09:08:52;;;;;;;1.00;0.80;;;24.90;71.50;;;;;;4981023;28;20472;-93
2022/05/22 09:11:39;;;;;;;4.07;1.63;;;24.90;70.90;;;;;;4999356;28;20426;-93
2022/05/22 09:14:15;;;;;;;1.20;1.10;;;24.80;70.80;;;;;;4998627;28;20368;-92
2022/05/22 09:16:47;;;;;;;0.90;0.90;;;24.80;70.80;;;;;;4978362;28;20472;-92
2022/05/22 09:19:33;;;;;;;1.27;1.10;;;24.80;71.10;;;;;;4978733;28;20471;-93
2022/05/22 09:22:43;;;;;;;1.23;1.10;;;24.90;71.30;;;;;;4979200;28;20440;-93
2022/05/22 09:25:24;;;;;;;1.23;1.13;;;25.00;70.60;;;;;;4978320;28;20435;-93
2022/05/22 09:27:58;;;;;;;3.37;1.57;;;25.00;70.60;;;;;;4984566;28;20445;-92
2022/05/22 09:30:36;;;;;;;2.50;1.43;;;25.00;69.90;;;;;;4976519;28;20477;-94
2022/05/22 09:33:01;;;;;;;2.20;1.27;;;25.10;70.50;;;;;;4977504;28;20441;-93
2022/05/22 09:35:43;;;;;;;1.87;1.00;;;25.20;70.70;;;;;;4978106;28;20770;-93
2022/05/22 09:38:27;;;;;;;2.20;1.20;;;25.20;70.80;;;;;;4976115;28;20202;-92
2022/05/22 09:41:09;;;;;;;3.87;1.40;;;25.30;71.00;;;;;;4976998;28;20484;-92
2022/05/22 09:43:47;;;;;;;1.30;1.30;;;25.40;70.40;;;;;;4977505;28;20468;-93
2022/05/22 09:46:37;;;;;;;1.47;1.27;;;25.40;70.70;;;;;;4978003;28;20452;-92
2022/05/22 09:49:26;;;;;;;2.20;0.80;;;25.50;70.70;;;;;;4978441;28;20463;-93
2022/05/22 09:52:09;;;;;;;1.53;1.00;;;25.60;70.70;;;;;;4971839;28;20451;-92
2022/05/22 09:55:10;;;;;;;1.97;1.30;;;25.60;69.50;;;;;;4977461;28;20793;-92
2022/05/22 09:57:50;;;;;;;1.13;1.07;;;25.60;69.60;;;;;;4978592;28;20470;-92
2022/05/22 10:00:19;;;;;;;3.33;1.13;;;25.60;69.00;;;;;;4977775;28;20448;-92
2022/05/22 10:03:00;;;;;;;3.30;1.30;;;25.50;69.30;;;;;;4978102;28;20442;-92
2022/05/22 10:05:50;;;;;;;9.87;1.60;;;25.50;68.40;;;;;;4977588;28;21045;-90
2022/05/22 10:08:55;;;;;;;2.70;1.30;;;25.40;67.70;;;;;;4979182;28;20465;-92
2022/05/22 10:11:30;;;;;;;4.80;1.33;;;25.30;67.90;;;;;;4979170;28;20515;-93
2022/05/22 10:14:34;;;;;;;1.47;0.97;;;25.30;67.30;;;;;;4979384;28;20900;-93
2022/05/22 10:17:32;;;;;;;5.77;1.33;;;25.20;67.60;;;;;;4994013;28;20480;-92
2022/05/22 10:20:18;;;;;;;1.00;0.90;;;25.10;67.70;;;;;;4978260;28;20427;-91
2022/05/22 10:23:02;;;;;;;2.13;1.30;;;25.00;67.80;;;;;;4987520;28;20466;-92
2022/05/22 10:25:57;;;;;;;8.33;1.20;;;25.00;68.60;;;;;;4998507;28;20471;-92
2022/05/22 10:28:32;;;;;;;5.70;1.10;;;24.90;68.20;;;;;;4980198;28;20476;-94
2022/05/22 10:31:00;;;;;;;1.30;1.10;;;24.90;68.50;;;;;;4998774;28;20515;-93
2022/05/22 10:33:29;;;;;;;1.10;0.80;;;24.80;68.30;;;;;;4979750;28;20444;-92
2022/05/22 10:36:03;;;;;;;1.33;0.80;;;24.80;68.50;;;;;;4979816;28;20455;-92
2022/05/22 10:38:35;;;;;;;1.30;1.20;;;24.80;68.90;;;;;;4987154;28;20456;-92
2022/05/22 10:44:07;;;;;;;1.37;1.10;;;24.80;69.20;;;;;;5005274;28;20792;-93
2022/05/22 10:46:43;;;;;;;4.60;1.20;;;24.90;68.80;;;;;;4996575;28;20439;-92
2022/05/22 10:49:09;;;;;;;1.43;1.33;;;24.90;68.00;;;;;;4996405;28;20475;-92
2022/05/22 10:51:35;;;;;;;1.17;0.87;;;24.80;67.90;;;;;;4997585;28;20471;-91
2022/05/22 10:54:02;;;;;;;2.93;1.27;;;24.80;68.90;;;;;;5013756;28;20174;-93
2022/05/22 10:56:34;;;;;;;1.43;1.33;;;24.80;69.20;;;;;;4997115;28;20189;-92
2022/05/22 10:59:02;;;;;;;1.50;0.87;;;24.80;68.50;;;;;;5012359;28;20398;-92
2022/05/22 11:01:32;;;;;;;1.37;1.27;;;24.80;68.20;;;;;;5012749;28;20442;-93
2022/05/22 11:04:08;;;;;;;2.53;1.23;;;24.80;68.40;;;;;;4994293;28;20439;-93
2022/05/22 11:06:50;;;;;;;2.20;1.03;;;24.80;69.00;;;;;;5013281;28;20427;-93
2022/05/22 11:09:24;;;;;;;1.37;1.27;;;24.90;69.80;;;;;;4980910;28;21004;-93
2022/05/22 11:11:49;;;;;;;1.50;0.93;;;24.90;68.90;;;;;;4996987;28;20493;-93
2022/05/22 11:14:20;;;;;;;4.00;1.03;;;24.90;69.00;;;;;;5015492;28;20408;-92
2022/05/22 11:16:47;;;;;;;2.27;1.13;;;25.00;68.90;;;;;;4998551;28;20333;-91
2022/05/22 11:19:25;;;;;;;1.10;0.90;;;25.00;68.90;;;;;;5018094;28;20459;-92
2022/05/22 11:22:15;;;;;;;1.83;1.10;;;25.10;68.70;;;;;;5000656;28;20472;-92
2022/05/22 11:24:55;;;;;;;0.93;0.93;;;25.20;68.60;;;;;;5015355;28;20478;-93
2022/05/22 11:27:40;;;;;;;2.03;1.27;;;25.20;68.30;;;;;;5004884;28;20472;-93
2022/05/22 11:30:42;;;;;;;1.73;1.40;;;25.20;68.70;;;;;;4997707;28;20465;-92
2022/05/22 11:33:37;;;;;;;2.50;1.10;;;25.20;68.50;;;;;;5001113;28;20462;-93
2022/05/22 11:36:26;;;;;;;1.00;0.90;;;25.30;68.70;;;;;;4994736;28;20455;-92
2022/05/22 11:39:04;;;;;;;1.67;0.97;;;25.30;68.50;;;;;;4993747;28;20950;-92
2022/05/22 11:41:36;;;;;;;1.93;1.30;;;25.40;67.60;;;;;;4993884;28;20431;-92
2022/05/22 11:44:15;;;;;;;1.47;1.07;;;25.40;68.10;;;;;;4994521;28;20431;-93
2022/05/22 11:47:00;;;;;;;2.40;1.00;;;25.40;67.30;;;;;;4994194;28;20437;-93
2022/05/22 11:49:32;;;;;;;2.10;1.27;;;25.50;67.50;;;;;;4977038;28;20464;-93
2022/05/22 11:55:20;;;;;;;1.17;0.80;;;25.60;67.00;;;;;;4996461;28;20514;-93
2022/05/22 11:58:15;;;;;;;1.77;1.00;;;25.60;66.10;;;;;;4996156;28;20464;-93
2022/05/22 12:01:15;;;;;;;0.80;0.80;;;25.60;66.10;;;;;;4995830;28;20440;-93
2022/05/22 12:03:50;;;;;;;0.80;0.80;;;25.60;65.80;;;;;;4964574;28;20424;-93
2022/05/22 12:06:28;;;;;;;1.33;1.20;;;25.60;65.60;;;;;;4996352;28;20436;-92
2022/05/22 12:09:14;;;;;;;1.67;1.40;;;25.70;65.40;;;;;;5013442;28;20474;-92
2022/05/22 12:11:58;;;;;;;2.10;1.20;;;25.60;64.60;;;;;;4967185;28;20464;-93
2022/05/22 12:14:36;;;;;;;2.20;1.27;;;25.70;65.10;;;;;;5014221;28;20467;-92
2022/05/22 12:17:14;;;;;;;1.80;1.10;;;25.70;64.10;;;;;;5015801;28;20486;-92
2022/05/22 12:19:56;;;;;;;3.13;1.37;;;25.60;64.50;;;;;;5000283;28;20435;-92
2022/05/22 12:23:07;;;;;;;0.90;0.90;;;25.70;64.60;;;;;;5018406;28;20542;-93
2022/05/22 12:25:22;;;;;;;1.73;1.30;;;25.70;64.80;;;;;;5019805;28;20425;-93
2022/05/22 12:27:49;;;;;;;6.30;1.40;;;25.70;65.90;;;;;;5002278;28;20440;-92
2022/05/22 12:30:39;;;;;;;1.50;1.40;;;25.70;66.40;;;;;;4999916;28;20791;-93
2022/05/22 12:33:13;;;;;;;4.50;1.17;;;25.70;66.30;;;;;;5001077;28;20510;-91
2022/05/22 12:35:41;;;;;;;1.37;1.27;;;25.80;66.10;;;;;;5000780;28;20447;-92
2022/05/22 12:38:10;;;;;;;1.50;1.30;;;25.80;65.80;;;;;;5002505;28;20463;-92
2022/05/22 12:41:06;;;;;;;1.90;1.17;;;25.80;65.70;;;;;;5002611;28;20437;-91
2022/05/22 12:43:33;;;;;;;2.60;1.20;;;25.80;66.00;;;;;;5006836;28;20480;-91
2022/05/22 12:46:04;;;;;;;1.90;1.03;;;25.80;65.80;;;;;;5004636;28;20439;-91
2022/05/22 12:48:43;;;;;;;1.23;1.10;;;25.80;65.20;;;;;;5006604;28;20920;-91
2022/05/22 12:51:16;;;;;;;1.60;1.40;;;25.80;65.10;;;;;;4986045;28;20455;-90
2022/05/22 12:53:46;;;;;;;1.30;1.20;;;25.80;65.20;;;;;;4979688;28;20784;-92
2022/05/22 12:56:24;;;;;;;2.20;1.43;;;25.80;65.50;;;;;;5000018;28;20445;-93
2022/05/22 12:58:59;;;;;;;1.40;1.30;;;25.70;66.50;;;;;;4996743;28;20501;-92
2022/05/22 13:01:27;;;;;;;2.13;1.60;;;25.70;66.80;;;;;;4979776;28;20483;-93
2022/05/22 13:03:56;;;;;;;2.10;1.37;;;25.70;67.00;;;;;;4979407;28;20860;-93
2022/05/22 13:06:28;;;;;;;2.10;1.20;;;25.80;66.60;;;;;;4980114;28;20441;-93
2022/05/22 13:09:01;;;;;;;1.80;1.17;;;25.80;66.60;;;;;;4979060;28;20464;-92
2022/05/22 13:11:40;;;;;;;1.30;1.20;;;25.80;66.10;;;;;;4980066;28;20788;-92
2022/05/22 13:14:21;;;;;;;2.23;1.13;;;25.80;66.10;;;;;;4991354;28;20425;-92
2022/05/22 13:16:49;;;;;;;1.40;1.20;;;25.80;65.70;;;;;;5014582;28;20472;-92
2022/05/22 13:19:17;;;;;;;1.60;1.30;;;25.90;65.80;;;;;;4997442;28;20454;-93
2022/05/22 13:21:43;;;;;;;2.60;1.40;;;25.90;65.50;;;;;;4998753;28;20468;-92
2022/05/22 13:24:14;;;;;;;1.70;1.00;;;25.90;65.60;;;;;;5017841;28;20405;-92